createdAt,value
2023-04-21T00:01:18.665Z,97061.22
2023-04-21T00:03:46.705Z,97065.47
2023-04-21T00:06:13.415Z,97069.75
2023-04-21T00:08:40.579Z,97067.16
2023-04-21T00:11:07.845Z,97058.69
2023-04-21T00:13:35.216Z,97063.78
2023-04-21T00:16:02.625Z,97067.19
2023-04-21T00:18:29.317Z,97061.25
2023-04-21T00:20:56.408Z,97062.91
2023-04-21T00:23:23.039Z,97068.88
2023-04-21T00:25:49.601Z,97069.69
2023-04-21T00:28:16.221Z,97071.41
2023-04-21T00:30:42.703Z,97063.75
2023-04-21T00:33:09.326Z,97069.66
2023-04-21T00:35:35.914Z,97065.44
2023-04-21T00:38:02.428Z,97062.88
2023-04-21T00:40:28.977Z,97072.22
2023-04-21T00:42:55.612Z,97067.09
2023-04-21T00:45:22.162Z,97064.56
2023-04-21T00:47:48.892Z,97067.94
2023-04-21T00:50:15.758Z,97069.63
2023-04-21T00:52:43.845Z,97058.56
2023-04-21T00:55:10.531Z,97063.69
2023-04-21T00:57:37.991Z,97058.53
2023-04-21T01:00:06.253Z,97062.75
2023-04-21T01:02:34.567Z,97052.47
2023-04-21T01:05:01.207Z,97057.66
2023-04-21T01:07:27.697Z,97057.56
2023-04-21T01:09:54.263Z,97061.09
2023-04-21T01:12:20.830Z,97066.19
2023-04-21T01:14:47.344Z,97069.56
2023-04-21T01:17:13.815Z,97067.91
2023-04-21T01:19:42.565Z,97033.50
2023-04-21T01:22:12.676Z,97058.63
2023-04-21T01:24:40.744Z,97061.16
2023-04-21T01:27:14.673Z,97065.44
2023-04-21T01:29:41.772Z,97066.31
2023-04-21T01:32:10.114Z,97059.50
2023-04-21T01:34:36.667Z,97057.81
2023-04-21T01:37:03.659Z,97061.25
2023-04-21T01:39:30.399Z,97052.75
2023-04-21T01:41:57.847Z,97056.22
2023-04-21T01:44:25.907Z,97047.69
2023-04-21T01:46:52.988Z,97045.19
2023-04-21T01:49:19.654Z,97052.84
2023-04-21T01:51:46.305Z,97058.81
2023-04-21T01:54:12.841Z,97055.44
2023-04-21T01:56:39.399Z,97054.59
2023-04-21T01:59:05.998Z,97060.56
2023-04-21T02:01:32.561Z,97046.94
2023-04-21T02:03:59.355Z,97038.47
2023-04-21T02:06:26.282Z,97041.91
2023-04-21T02:08:52.805Z,97030.84
2023-04-21T02:11:19.348Z,97021.28
2023-04-21T02:13:46.682Z,97030.84
2023-04-21T02:16:14.226Z,97028.25
2023-04-21T02:18:41.348Z,97041.03
2023-04-21T02:21:07.882Z,97037.59
2023-04-21T02:23:34.467Z,97051.19
2023-04-21T02:26:01.045Z,97059.66
2023-04-21T02:28:27.604Z,97072.38
2023-04-21T02:30:54.351Z,97077.47
2023-04-21T02:33:20.959Z,97069.78
2023-04-21T02:35:47.551Z,97066.38
2023-04-21T02:38:14.079Z,97072.28
2023-04-21T02:40:41.077Z,97070.56
2023-04-21T02:43:07.859Z,97066.31
2023-04-21T02:45:34.377Z,97056.75
2023-04-21T02:48:00.953Z,97064.56
2023-04-21T02:50:27.474Z,97060.28
2023-04-21T02:52:53.980Z,97056.03
2023-04-21T02:55:22.519Z,97054.31
2023-04-21T02:57:49.076Z,97066.22
2023-04-21T03:00:15.821Z,97042.38
2023-04-21T03:02:42.547Z,97036.41
2023-04-21T03:05:09.277Z,97044.94
2023-04-21T03:07:35.825Z,97044.06
2023-04-21T03:10:02.486Z,97047.44
2023-04-21T03:12:29.029Z,97046.56
2023-04-21T03:14:56.169Z,97045.78
2023-04-21T03:17:22.775Z,97055.09
2023-04-21T03:19:49.373Z,97051.72
2023-04-21T03:22:15.913Z,97055.16
2023-04-21T03:24:42.426Z,97051.72
2023-04-21T03:27:10.469Z,97050.91
2023-04-21T03:29:37.684Z,97049.19
2023-04-21T03:32:04.314Z,97052.59
2023-04-21T03:34:30.867Z,97043.25
2023-04-21T03:36:57.390Z,97035.59
2023-04-21T03:39:24.115Z,97029.66
2023-04-21T03:41:51.377Z,97046.63
2023-04-21T03:44:17.857Z,97056.03
2023-04-21T03:46:44.412Z,97054.28
2023-04-21T03:49:11.171Z,97061.09
2023-04-21T03:51:37.706Z,97056.81
2023-04-21T03:54:04.244Z,97061.09
2023-04-21T03:56:30.986Z,97051.69
2023-04-21T03:58:57.541Z,97048.28
2023-04-21T04:01:24.030Z,97040.63
2023-04-21T04:03:50.926Z,97035.53
2023-04-21T04:06:17.671Z,97029.53
2023-04-21T04:08:44.254Z,97029.53
2023-04-21T04:11:10.794Z,97016.75
2023-04-21T04:13:37.362Z,97020.16
2023-04-21T04:16:04.180Z,97026.06
2023-04-21T04:18:30.743Z,97023.53
2023-04-21T04:20:57.234Z,97034.56
2023-04-21T04:23:23.763Z,97049.00
2023-04-21T04:25:51.862Z,97069.41
2023-04-21T04:28:18.424Z,97060.97
2023-04-21T04:30:45.438Z,97066.06
2023-04-21T04:33:12.088Z,97069.47
2023-04-21T04:35:38.805Z,97062.69
2023-04-21T04:38:05.332Z,97063.59
2023-04-21T04:40:33.281Z,97064.44
2023-04-21T04:43:01.396Z,97070.44
2023-04-21T04:45:29.719Z,97061.13
2023-04-21T04:47:56.337Z,97067.09
2023-04-21T04:50:22.940Z,97064.56
2023-04-21T04:52:49.758Z,97063.78
2023-04-21T04:55:16.317Z,97067.19
2023-04-21T04:57:42.833Z,97067.22
2023-04-21T05:00:11.505Z,97066.38
2023-04-21T05:02:38.768Z,97067.28
2023-04-21T05:05:07.001Z,97062.22
2023-04-21T05:07:34.353Z,97069.91
2023-04-21T05:10:01.147Z,97075.00
2023-04-21T05:12:27.719Z,97082.72
2023-04-21T05:14:54.248Z,97080.19
2023-04-21T05:17:20.740Z,97080.94
2023-04-21T05:19:47.267Z,97088.72
2023-04-21T05:22:13.785Z,97083.66
2023-04-21T05:24:41.574Z,97081.97
2023-04-21T05:27:08.093Z,97083.69
2023-04-21T05:29:34.709Z,97085.38
2023-04-21T05:32:01.529Z,97087.97
2023-04-21T05:34:28.296Z,97099.91
2023-04-21T05:36:54.843Z,97086.25
2023-04-21T05:39:21.418Z,97083.66
2023-04-21T05:41:47.939Z,97083.66
2023-04-21T05:44:18.034Z,97089.59
2023-04-21T05:46:44.712Z,97106.59
2023-04-21T05:49:11.260Z,97092.13
2023-04-21T05:51:37.809Z,97096.31
2023-04-21T05:54:04.384Z,97092.00
2023-04-21T05:56:30.923Z,97092.78
2023-04-21T05:58:57.428Z,97095.31
2023-04-21T06:01:23.935Z,97090.16
2023-04-21T06:03:50.692Z,97094.38
2023-04-21T06:06:17.592Z,97096.06
2023-04-21T06:08:44.121Z,97086.56
2023-04-21T06:11:10.767Z,97088.34
2023-04-21T06:13:38.858Z,97095.09
2023-04-21T06:16:06.457Z,97104.47
2023-04-21T06:18:33.003Z,97111.25
2023-04-21T06:20:59.543Z,97098.47
2023-04-21T06:23:26.109Z,97095.94
2023-04-21T06:26:06.765Z,97099.34
2023-04-21T06:28:34.011Z,97092.50
2023-04-21T06:31:01.199Z,97083.09
2023-04-21T06:33:28.007Z,97096.81
2023-04-21T06:35:54.744Z,97100.19
2023-04-21T06:38:21.484Z,97090.78
2023-04-21T06:40:47.961Z,97086.59
2023-04-21T06:43:14.623Z,97092.53
2023-04-21T06:45:41.168Z,97095.09
2023-04-21T06:48:07.788Z,97092.53
2023-04-21T06:50:34.290Z,97101.06
2023-04-21T06:53:00.832Z,97107.91
2023-04-21T06:55:27.380Z,97102.78
2023-04-21T06:57:53.888Z,97101.13
2023-04-21T07:00:20.876Z,97103.66
2023-04-21T07:02:47.550Z,97105.34
2023-04-21T07:05:14.116Z,97097.69
2023-04-21T07:07:40.656Z,97099.41
2023-04-21T07:10:07.628Z,97095.13
2023-04-21T07:12:34.190Z,97104.50
2023-04-21T07:15:00.950Z,97095.97
2023-04-21T07:17:27.552Z,97095.13
2023-04-21T07:19:54.084Z,97099.41
2023-04-21T07:22:20.926Z,97090.00
2023-04-21T07:24:49.215Z,97095.97
2023-04-21T07:27:16.134Z,97095.97
2023-04-21T07:29:42.714Z,97087.44
2023-04-21T07:32:09.315Z,97093.38
2023-04-21T07:34:35.909Z,97091.75
2023-04-21T07:37:02.430Z,97096.84
2023-04-21T07:39:28.995Z,97094.34
2023-04-21T07:41:55.899Z,97084.94
2023-04-21T07:44:22.478Z,97084.00
2023-04-21T07:46:48.957Z,97099.44
2023-04-21T07:49:15.617Z,97099.47
2023-04-21T07:51:42.164Z,97086.56
2023-04-21T07:54:08.687Z,97096.94
2023-04-21T07:56:35.307Z,97096.97
2023-04-21T07:59:01.922Z,97091.91
2023-04-21T08:01:28.529Z,97088.53
2023-04-21T08:03:55.092Z,97093.63
2023-04-21T08:06:21.764Z,97097.09
2023-04-21T08:08:48.374Z,97099.66
2023-04-21T08:11:14.963Z,97098.81
2023-04-21T08:13:41.476Z,97089.53
2023-04-21T08:16:08.084Z,97072.97
2023-04-21T08:18:34.670Z,97095.50
2023-04-21T08:21:02.454Z,97102.38
2023-04-21T08:23:32.255Z,97104.91
2023-04-21T08:25:59.014Z,97091.28
2023-04-21T08:28:25.567Z,97090.47
2023-04-21T08:30:52.090Z,97087.97
2023-04-21T08:33:18.691Z,97091.41
2023-04-21T08:35:59.238Z,97092.28
2023-04-21T08:38:30.776Z,97061.25
2023-04-21T08:41:01.236Z,97075.22
2023-04-21T08:43:28.755Z,97072.69
2023-04-21T08:45:55.343Z,97074.44
2023-04-21T08:48:23.689Z,97066.78
2023-04-21T08:50:50.863Z,97074.44
2023-04-21T08:53:17.711Z,97071.91
2023-04-21T08:55:44.193Z,97077.00
2023-04-21T08:58:10.819Z,97076.13
2023-04-21T09:00:37.518Z,97065.75
2023-04-21T09:03:16.149Z,97082.03
2023-04-21T09:06:00.045Z,97076.91
2023-04-21T09:08:28.411Z,97085.41
2023-04-21T09:10:55.305Z,97069.09
2023-04-21T09:13:29.528Z,97075.97
2023-04-21T09:15:56.047Z,97079.34
2023-04-21T09:18:23.992Z,97079.31
2023-04-21T09:20:52.513Z,97071.63
2023-04-21T09:23:20.887Z,97076.72
2023-04-21T09:25:47.377Z,97076.69
2023-04-21T09:28:14.277Z,97074.13
2023-04-21T09:30:42.087Z,97069.66
2023-04-21T09:33:27.305Z,97077.47
2023-04-21T09:35:55.935Z,97076.63
2023-04-21T09:38:22.521Z,97075.81
2023-04-21T09:40:58.956Z,97074.09
2023-04-21T09:43:26.071Z,97076.63
2023-04-21T09:45:52.786Z,97041.16
2023-04-21T09:48:21.946Z,97063.88
2023-04-21T09:53:18.461Z,97063.91
2023-04-21T09:55:46.233Z,97063.09
2023-04-21T09:58:12.790Z,97051.91
2023-04-21T10:00:39.874Z,97027.88
2023-04-21T10:03:10.651Z,97060.59
2023-04-21T10:05:42.910Z,97053.00
2023-04-21T10:08:11.675Z,97046.94
2023-04-21T10:10:38.431Z,97046.97
2023-04-21T10:13:04.967Z,97049.66
2023-04-21T10:15:32.649Z,97034.13
2023-04-21T10:18:14.493Z,97044.63
2023-04-21T10:20:59.686Z,97037.03
2023-04-21T10:23:32.744Z,97042.97
2023-04-21T10:26:09.852Z,97038.72
2023-04-21T10:28:43.662Z,97015.44
2023-04-21T10:31:34.923Z,97035.28
2023-04-21T10:34:13.260Z,97032.72
2023-04-21T10:37:06.212Z,97027.63
2023-04-21T10:39:43.287Z,97020.81
2023-04-21T10:42:12.437Z,97020.75
2023-04-21T10:44:45.413Z,97024.16
2023-04-21T10:47:11.947Z,97013.06
2023-04-21T10:49:39.306Z,97017.28
2023-04-21T10:52:06.403Z,97032.63
2023-04-21T10:54:43.068Z,97013.84
2023-04-21T10:57:11.567Z,97002.78
2023-04-21T10:59:38.234Z,97005.28
2023-04-21T11:02:12.060Z,97007.84
2023-04-21T11:04:45.989Z,97006.97
2023-04-21T11:07:23.195Z,96999.31
2023-04-21T11:10:00.343Z,96998.44
2023-04-21T11:12:29.065Z,96999.31
2023-04-21T11:14:55.639Z,97006.13
2023-04-21T11:17:24.045Z,96995.88
2023-04-21T11:19:54.075Z,96990.03
2023-04-21T11:22:22.911Z,96975.34
2023-04-21T11:24:52.047Z,96988.31
2023-04-21T11:27:19.316Z,96980.66
2023-04-21T11:29:46.420Z,96984.06
2023-04-21T11:32:13.167Z,96981.53
2023-04-21T11:34:39.668Z,96982.41
2023-04-21T11:37:09.772Z,96987.50
2023-04-21T11:39:36.364Z,96987.50
2023-04-21T11:42:03.008Z,96981.53
2023-04-21T11:44:40.616Z,96990.91
2023-04-21T11:47:24.157Z,96980.66
2023-04-21T11:49:54.808Z,96983.25
2023-04-21T11:52:22.853Z,96981.56
2023-04-21T11:54:53.960Z,96983.25
2023-04-21T11:57:20.473Z,96969.69
2023-04-21T11:59:48.011Z,96974.78
2023-04-21T12:02:23.004Z,96969.69
2023-04-21T12:05:09.562Z,96965.41
2023-04-21T12:07:43.498Z,96971.38
2023-04-21T12:10:20.214Z,96969.69
2023-04-21T12:12:47.049Z,96975.63
2023-04-21T12:15:19.360Z,96970.50
2023-04-21T12:17:46.787Z,96972.22
2023-04-21T12:20:15.614Z,96970.50
2023-04-21T12:22:42.103Z,96962.81
2023-04-21T12:25:11.752Z,96970.47
2023-04-21T12:27:38.270Z,96966.25
2023-04-21T12:30:05.295Z,96959.44
2023-04-21T12:32:31.938Z,96965.34
2023-04-21T12:35:00.580Z,96953.44
2023-04-21T12:37:27.102Z,96957.69
2023-04-21T12:39:53.611Z,96961.09
2023-04-21T12:42:20.408Z,96962.78
2023-04-21T12:44:46.902Z,96960.28
2023-04-21T12:47:13.528Z,96958.59
2023-04-21T12:49:40.186Z,96951.81
2023-04-21T12:52:06.789Z,96952.66
2023-04-21T12:54:33.751Z,96955.28
2023-04-21T12:57:00.423Z,96946.81
2023-04-21T12:59:27.091Z,96926.06
2023-04-21T13:01:53.769Z,96924.34
2023-04-21T13:04:20.603Z,96940.09
2023-04-21T13:06:47.309Z,96941.81
2023-04-21T13:09:13.790Z,96946.09
2023-04-21T13:11:40.445Z,96938.47
2023-04-21T13:14:07.313Z,96934.22
2023-04-21T13:16:33.937Z,96931.72
2023-04-21T13:19:00.872Z,96930.03
2023-04-21T13:21:27.874Z,96935.19
2023-04-21T13:23:54.440Z,96921.56
2023-04-21T13:26:21.024Z,96930.09
2023-04-21T13:28:47.551Z,96925.84
2023-04-21T13:31:14.680Z,96930.19
2023-04-21T13:33:41.576Z,96927.66
2023-04-21T13:36:11.167Z,96923.44
2023-04-21T13:38:40.519Z,96920.06
2023-04-21T13:41:07.573Z,96916.69
2023-04-21T13:43:34.176Z,96916.72
2023-04-21T13:46:03.324Z,96917.63
2023-04-21T13:48:30.088Z,96919.34
2023-04-21T13:50:56.698Z,96909.13
2023-04-21T13:53:23.324Z,96888.38
2023-04-21T13:55:49.954Z,96900.53
2023-04-21T13:58:17.026Z,96904.78
2023-04-21T14:00:43.647Z,96901.34
2023-04-21T14:03:11.595Z,96903.84
2023-04-21T14:05:38.997Z,96901.25
2023-04-21T14:08:06.035Z,96873.59
2023-04-21T14:10:32.693Z,96893.50
2023-04-21T14:12:59.295Z,96890.91
2023-04-21T14:15:26.211Z,96884.88
2023-04-21T14:17:53.288Z,96881.50
2023-04-21T14:20:20.152Z,96884.84
2023-04-21T14:22:46.722Z,96883.13
2023-04-21T14:25:13.271Z,96873.75
2023-04-21T14:27:39.887Z,96866.06
2023-04-21T14:30:07.116Z,96860.09
2023-04-21T14:32:33.803Z,96860.09
2023-04-21T14:35:03.128Z,96855.81
2023-04-21T14:37:29.651Z,96854.97
2023-04-21T14:39:56.252Z,96871.09
2023-04-21T14:42:22.774Z,96855.78
2023-04-21T14:44:49.354Z,96849.81
2023-04-21T14:47:15.982Z,96849.81
2023-04-21T14:49:42.568Z,96840.41
2023-04-21T14:52:09.335Z,96831.81
2023-04-21T14:54:36.044Z,96833.59
2023-04-21T14:59:32.448Z,96832.75
2023-04-21T15:01:59.201Z,96833.63
2023-04-21T15:04:25.919Z,96831.06
2023-04-21T15:06:52.768Z,96837.84
2023-04-21T15:09:19.745Z,96842.13
2023-04-21T15:11:46.635Z,96831.88
2023-04-21T15:14:13.198Z,96835.25
2023-04-21T15:16:39.742Z,96824.22
2023-04-21T15:19:06.454Z,96827.63
2023-04-21T15:21:33.000Z,96827.63
2023-04-21T15:23:59.534Z,96830.19
2023-04-21T15:26:26.820Z,96817.44
2023-04-21T15:28:53.418Z,96817.50
2023-04-21T15:31:20.016Z,96790.75
2023-04-21T15:33:46.548Z,96819.22
2023-04-21T15:36:13.065Z,96821.78
2023-04-21T15:38:39.601Z,96814.16
2023-04-21T15:41:06.372Z,96815.03
2023-04-21T15:43:33.145Z,96807.34
2023-04-21T15:45:59.742Z,96813.31
2023-04-21T15:48:26.600Z,96808.19
2023-04-21T15:50:53.206Z,96809.88
2023-04-21T15:53:20.532Z,96789.56
2023-04-21T15:55:47.184Z,96804.03
2023-04-21T15:58:13.789Z,96806.59
2023-04-21T16:00:41.799Z,96800.59
2023-04-21T16:03:09.049Z,96779.78
2023-04-21T16:05:36.227Z,96806.56
2023-04-21T16:08:02.888Z,96801.44
2023-04-21T16:10:29.532Z,96808.22
2023-04-21T16:12:56.198Z,96802.28
2023-04-21T16:15:24.677Z,96802.28
2023-04-21T16:17:52.161Z,96787.63
2023-04-21T16:20:18.791Z,96803.09
2023-04-21T16:22:45.482Z,96799.69
2023-04-21T16:25:13.833Z,96794.59
2023-04-21T16:27:40.843Z,96796.28
2023-04-21T16:30:08.574Z,96792.84
2023-04-21T16:32:35.734Z,96794.59
2023-04-21T16:35:07.884Z,96794.56
2023-04-21T16:37:35.910Z,96768.75
2023-04-21T16:40:02.820Z,96785.19
2023-04-21T16:42:29.416Z,96781.81
2023-04-21T16:44:58.983Z,96791.16
2023-04-21T16:47:25.706Z,96790.28
2023-04-21T16:49:52.616Z,96792.84
2023-04-21T16:52:19.309Z,96796.28
2023-04-21T16:54:45.837Z,96794.56
2023-04-21T16:57:12.373Z,96792.00
2023-04-21T16:59:38.924Z,96800.50
2023-04-21T17:02:05.486Z,96803.94
2023-04-21T17:04:32.048Z,96799.66
2023-04-21T17:06:58.582Z,96809.88
2023-04-21T17:09:25.206Z,96800.50
2023-04-21T17:11:51.734Z,96799.66
2023-04-21T17:14:18.299Z,96806.47
2023-04-21T17:16:44.829Z,96804.78
2023-04-21T17:19:11.595Z,96802.22
2023-04-21T17:21:38.104Z,96803.91
2023-04-21T17:24:04.726Z,96806.50
2023-04-21T17:26:31.259Z,96809.03
2023-04-21T17:28:57.786Z,96809.88
2023-04-21T17:31:24.357Z,96809.03
2023-04-21T17:33:53.254Z,96806.47
2023-04-21T17:36:19.813Z,96808.16
2023-04-21T17:38:46.407Z,96811.56
2023-04-21T17:41:12.986Z,96815.00
2023-04-21T17:43:39.575Z,96809.00
2023-04-21T17:46:07.411Z,96795.09
2023-04-21T17:48:34.066Z,96815.81
2023-04-21T17:51:00.706Z,96819.22
2023-04-21T17:53:27.220Z,96815.81
2023-04-21T17:55:53.900Z,96815.78
2023-04-21T17:58:20.865Z,96821.81
2023-04-21T18:00:47.375Z,96820.94
2023-04-21T18:03:13.987Z,96814.16
2023-04-21T18:05:40.788Z,96821.81
2023-04-21T18:08:07.558Z,96817.56
2023-04-21T18:10:34.127Z,96816.69
2023-04-21T18:13:00.719Z,96824.34
2023-04-21T18:15:27.372Z,96818.38
2023-04-21T18:17:54.099Z,96821.81
2023-04-21T18:20:20.899Z,96814.16
2023-04-21T18:22:48.484Z,96821.81
2023-04-21T18:25:14.973Z,96826.91
2023-04-21T18:27:41.558Z,96847.28
2023-04-21T18:30:11.545Z,96837.97
2023-04-21T18:32:38.262Z,96837.13
2023-04-21T18:35:05.750Z,96849.88
2023-04-21T18:37:32.325Z,96848.16
2023-04-21T18:39:58.900Z,96850.72
2023-04-21T18:42:26.310Z,96852.41
2023-04-21T18:44:55.559Z,96856.66
2023-04-21T18:47:24.344Z,96875.38
2023-04-21T18:49:51.511Z,96866.03
2023-04-21T18:52:18.082Z,96868.59
2023-04-21T18:54:44.595Z,96878.81
2023-04-21T18:57:11.573Z,96868.56
2023-04-21T18:59:38.124Z,96884.72
2023-04-21T19:02:06.113Z,96882.16
2023-04-21T19:04:33.060Z,96885.59
2023-04-21T19:06:59.819Z,96887.25
2023-04-21T19:09:28.070Z,96894.13
2023-04-21T19:11:54.595Z,96879.53
2023-04-21T19:14:21.283Z,96883.03
2023-04-21T19:16:48.816Z,96889.00
2023-04-21T19:19:15.741Z,96892.38
2023-04-21T19:21:43.582Z,96892.41
2023-04-21T19:24:10.140Z,96894.13
2023-04-21T19:26:36.817Z,96896.66
2023-04-21T19:29:03.711Z,96890.66
2023-04-21T19:31:30.460Z,96888.88
2023-04-21T19:33:57.018Z,96898.34
2023-04-21T19:36:23.556Z,96891.47
2023-04-21T19:38:50.153Z,96875.94
2023-04-21T19:41:16.666Z,96896.66
2023-04-21T19:43:43.209Z,96897.47
2023-04-21T19:46:10.266Z,96904.34
2023-04-21T19:48:37.141Z,96906.00
2023-04-21T19:51:03.779Z,96908.56
2023-04-21T19:53:30.334Z,96910.25
2023-04-21T19:55:56.939Z,96906.00
2023-04-21T19:58:38.855Z,96912.81
2023-04-21T20:01:06.903Z,96911.13
2023-04-21T20:03:33.704Z,96914.53
2023-04-21T20:06:01.619Z,96902.59
2023-04-21T20:08:28.186Z,96907.69
2023-04-21T20:10:54.730Z,96912.78
2023-04-21T20:13:21.305Z,96914.53
2023-04-21T20:15:47.930Z,96921.31
2023-04-21T20:18:14.580Z,96925.59
2023-04-21T20:20:41.267Z,96917.91
2023-04-21T20:23:07.742Z,96924.75
2023-04-21T20:25:34.267Z,96923.00
2023-04-21T20:28:00.771Z,96923.00
2023-04-21T20:30:27.279Z,96916.09
2023-04-21T20:32:53.884Z,96926.38
2023-04-21T20:35:20.433Z,96943.44
2023-04-21T20:37:47.243Z,96937.47
2023-04-21T20:40:14.655Z,96935.69
2023-04-21T20:42:44.910Z,96942.59
2023-04-21T20:45:11.555Z,96946.81
2023-04-21T20:47:38.246Z,96968.94
2023-04-21T20:50:05.299Z,96963.00
2023-04-21T20:52:31.904Z,96959.56
2023-04-21T20:54:58.411Z,96958.75
2023-04-21T20:57:26.959Z,96965.56
2023-04-21T20:59:53.661Z,96961.28
2023-04-21T21:02:20.557Z,96963.84
2023-04-21T21:04:47.752Z,96963.84
2023-04-21T21:07:14.739Z,96960.44
2023-04-21T21:09:41.417Z,96966.41
2023-04-21T21:12:08.177Z,96961.28
2023-04-21T21:14:34.720Z,96959.56
2023-04-21T21:17:01.567Z,96963.00
2023-04-21T21:19:28.178Z,96961.25
2023-04-21T21:21:54.662Z,96968.91
2023-04-21T21:24:21.215Z,96963.00
2023-04-21T21:26:47.726Z,96956.13
2023-04-21T21:29:14.230Z,96955.28
2023-04-21T21:31:40.820Z,96957.81
2023-04-21T21:34:07.454Z,96953.56
2023-04-21T21:36:34.057Z,96956.16
2023-04-21T21:39:00.617Z,96962.09
2023-04-21T21:41:27.248Z,96958.66
2023-04-21T21:43:53.727Z,96952.69
2023-04-21T21:46:20.480Z,96957.00
2023-04-21T21:48:47.119Z,96942.25
2023-04-21T21:51:13.633Z,96951.88
2023-04-21T21:53:40.331Z,96957.81
2023-04-21T21:56:06.896Z,96950.16
2023-04-21T21:58:33.464Z,96956.16
2023-04-21T22:01:00.027Z,96945.94
2023-04-21T22:03:27.260Z,96943.34
2023-04-21T22:05:53.984Z,96946.78
2023-04-21T22:08:20.658Z,96936.56
2023-04-21T22:10:47.196Z,96940.78
2023-04-21T22:13:13.751Z,96939.94
2023-04-21T22:15:41.272Z,96945.03
2023-04-21T22:18:09.639Z,96946.78
2023-04-21T22:20:36.322Z,96932.25
2023-04-21T22:23:03.384Z,96932.25
2023-04-21T22:25:29.889Z,96934.81
2023-04-21T22:27:56.920Z,96932.25
2023-04-21T22:30:23.556Z,96928.88
2023-04-21T22:32:50.119Z,96916.84
2023-04-21T22:35:16.836Z,96924.59
2023-04-21T22:37:43.350Z,96924.56
2023-04-21T22:40:10.187Z,96922.91
2023-04-21T22:42:36.974Z,96923.75
2023-04-21T22:45:05.290Z,96925.44
2023-04-21T22:47:32.782Z,96928.88
2023-04-21T22:49:59.316Z,96939.09
2023-04-21T22:52:28.802Z,96941.63
2023-04-21T22:54:55.326Z,96945.03
2023-04-21T22:57:21.837Z,96946.75
2023-04-21T22:59:48.426Z,96951.00
2023-04-21T23:02:15.110Z,96941.63
2023-04-21T23:04:41.700Z,96941.63
2023-04-21T23:07:08.271Z,96939.09
2023-04-21T23:09:34.781Z,96945.03
2023-04-21T23:12:01.683Z,96945.91
2023-04-21T23:14:28.179Z,96945.03
2023-04-21T23:16:54.765Z,96939.09
2023-04-21T23:19:21.370Z,96936.50
2023-04-21T23:21:48.120Z,96946.69
2023-04-21T23:24:14.667Z,96945.81
2023-04-21T23:26:41.208Z,96951.84
2023-04-21T23:29:07.771Z,96948.38
2023-04-21T23:31:34.447Z,96942.94
2023-04-21T23:34:01.020Z,96956.91
2023-04-21T23:36:27.705Z,96953.50
2023-04-21T23:38:54.312Z,96956.88
2023-04-21T23:41:21.362Z,96937.09
2023-04-21T23:43:47.889Z,96951.81
2023-04-21T23:46:15.100Z,96952.63
2023-04-21T23:48:41.740Z,96948.38
2023-04-21T23:51:08.454Z,96952.63
2023-04-21T23:53:35.110Z,96952.56
2023-04-21T23:56:01.660Z,96962.78
2023-04-21T23:58:28.206Z,96967.06
